ETEB/QOB METAR and TAF weather

Enter ICAO airport designator
Station Type Date Time Source
ETEB METAR 2024/06/14 01:55 UTC NOAA

ETEB 140155Z AUTO 15004KT 9999 CLR 11/05 A2992 RMK AO2 SLP145 T01090054 $


Station Type Date Time Source
ETEB Decoded METAR 2024/06/14 01:55 UTC NOAA

Ansbach / Katterbach, Germany (ETEB) 49-19N 010-38E 476M
Jun 13, 2024 - 09:55 PM EDT / 2024.06.14 0155 UTC
Wind: from the SSE (150 degrees) at 5 MPH (4 KT):0
Visibility: greater than 7 mile(s):0
Sky conditions: clear
Temperature: 51.6 F (10.9 C)
Dew Point: 41.7 F (5.4 C)
Relative Humidity: 68%
Pressure (altimeter): 29.92 in. Hg (1013 hPa)
ob: ETEB 140155Z AUTO 15004KT 9999 CLR 11/05 A2992 RMK AO2 SLP145 T01090054
cycle: 2

Station Type Date Time Source
ETEB TAF 2024/06/13 15:07 UTC NOAA